sensor_id;sensor_type;location;lat;lon;timestamp;P1;durP1;ratioP1;P2;durP2;ratioP2
36797;SDS011;22748;8.426;99.512;2023-01-19T00:01:06;26.90;;;18.23;;
36797;SDS011;22748;8.426;99.512;2023-01-19T00:03:36;25.92;;;22.17;;
36797;SDS011;22748;8.426;99.512;2023-01-19T00:06:07;24.17;;;21.45;;
36797;SDS011;22748;8.426;99.512;2023-01-19T00:08:38;26.20;;;23.42;;
36797;SDS011;22748;8.426;99.512;2023-01-19T00:11:11;30.98;;;24.95;;
36797;SDS011;22748;8.426;99.512;2023-01-19T00:13:42;40.13;;;32.75;;
36797;SDS011;22748;8.426;99.512;2023-01-19T00:16:18;30.90;;;27.38;;
36797;SDS011;22748;8.426;99.512;2023-01-19T00:18:50;26.00;;;23.27;;
36797;SDS011;22748;8.426;99.512;2023-01-19T00:21:21;27.43;;;24.63;;
36797;SDS011;22748;8.426;99.512;2023-01-19T00:23:52;26.23;;;23.60;;
36797;SDS011;22748;8.426;99.512;2023-01-19T00:26:24;25.33;;;22.63;;
36797;SDS011;22748;8.426;99.512;2023-01-19T00:28:55;25.75;;;21.27;;
36797;SDS011;22748;8.426;99.512;2023-01-19T00:34:00;20.67;;;18.50;;
36797;SDS011;22748;8.426;99.512;2023-01-19T00:36:31;21.33;;;19.05;;
36797;SDS011;22748;8.426;99.512;2023-01-19T00:39:02;21.13;;;18.83;;
36797;SDS011;22748;8.426;99.512;2023-01-19T00:41:35;22.88;;;20.05;;
36797;SDS011;22748;8.426;99.512;2023-01-19T00:44:19;22.63;;;20.17;;
36797;SDS011;22748;8.426;99.512;2023-01-19T00:46:51;26.38;;;19.95;;
36797;SDS011;22748;8.426;99.512;2023-01-19T00:49:23;71.60;;;23.70;;
36797;SDS011;22748;8.426;99.512;2023-01-19T00:51:52;29.75;;;19.17;;
36797;SDS011;22748;8.426;99.512;2023-01-19T00:54:23;45.38;;;27.85;;
36797;SDS011;22748;8.426;99.512;2023-01-19T00:56:54;26.65;;;22.67;;
36797;SDS011;22748;8.426;99.512;2023-01-19T00:59:26;27.23;;;21.20;;
36797;SDS011;22748;8.426;99.512;2023-01-19T01:01:56;50.17;;;25.50;;
36797;SDS011;22748;8.426;99.512;2023-01-19T01:04:28;45.78;;;26.27;;
36797;SDS011;22748;8.426;99.512;2023-01-19T01:07:00;38.10;;;25.60;;
36797;SDS011;22748;8.426;99.512;2023-01-19T01:09:30;53.88;;;29.20;;
36797;SDS011;22748;8.426;99.512;2023-01-19T01:12:06;36.75;;;27.17;;
36797;SDS011;22748;8.426;99.512;2023-01-19T01:14:36;38.85;;;27.42;;
36797;SDS011;22748;8.426;99.512;2023-01-19T01:17:07;36.20;;;29.35;;
36797;SDS011;22748;8.426;99.512;2023-01-19T01:19:41;57.22;;;30.00;;
36797;SDS011;22748;8.426;99.512;2023-01-19T01:22:14;35.55;;;27.70;;
36797;SDS011;22748;8.426;99.512;2023-01-19T01:24:46;35.83;;;25.90;;
36797;SDS011;22748;8.426;99.512;2023-01-19T01:29:50;36.42;;;27.80;;
36797;SDS011;22748;8.426;99.512;2023-01-19T01:32:21;32.35;;;28.23;;
36797;SDS011;22748;8.426;99.512;2023-01-19T01:34:50;36.97;;;26.65;;
36797;SDS011;22748;8.426;99.512;2023-01-19T01:37:23;41.20;;;27.15;;
36797;SDS011;22748;8.426;99.512;2023-01-19T01:39:55;35.45;;;26.92;;
36797;SDS011;22748;8.426;99.512;2023-01-19T01:42:32;29.83;;;24.67;;
36797;SDS011;22748;8.426;99.512;2023-01-19T01:45:04;30.33;;;25.50;;
36797;SDS011;22748;8.426;99.512;2023-01-19T01:47:51;32.58;;;23.63;;
36797;SDS011;22748;8.426;99.512;2023-01-19T01:50:25;23.92;;;19.60;;
36797;SDS011;22748;8.426;99.512;2023-01-19T01:52:58;27.58;;;19.77;;
36797;SDS011;22748;8.426;99.512;2023-01-19T01:55:30;20.88;;;17.33;;
36797;SDS011;22748;8.426;99.512;2023-01-19T01:58:05;20.63;;;15.73;;
36797;SDS011;22748;8.426;99.512;2023-01-19T02:00:41;12.77;;;10.75;;
36797;SDS011;22748;8.426;99.512;2023-01-19T02:03:25;13.10;;;10.98;;
36797;SDS011;22748;8.426;99.512;2023-01-19T02:06:00;12.98;;;11.02;;
36797;SDS011;22748;8.426;99.512;2023-01-19T02:08:34;13.38;;;10.65;;
36797;SDS011;22748;8.426;99.512;2023-01-19T02:11:24;13.43;;;10.67;;
36797;SDS011;22748;8.426;99.512;2023-01-19T02:14:09;12.77;;;11.30;;
36797;SDS011;22748;8.426;99.512;2023-01-19T02:19:12;11.38;;;10.15;;
36797;SDS011;22748;8.426;99.512;2023-01-19T02:21:48;10.20;;;9.18;;
36797;SDS011;22748;8.426;99.512;2023-01-19T02:24:24;13.80;;;9.75;;
36797;SDS011;22748;8.426;99.512;2023-01-19T02:26:57;12.02;;;10.07;;
36797;SDS011;22748;8.426;99.512;2023-01-19T02:29:28;12.00;;;9.55;;
36797;SDS011;22748;8.426;99.512;2023-01-19T02:32:00;11.43;;;10.25;;
36797;SDS011;22748;8.426;99.512;2023-01-19T02:34:32;11.40;;;10.05;;
36797;SDS011;22748;8.426;99.512;2023-01-19T02:37:05;13.55;;;9.48;;
36797;SDS011;22748;8.426;99.512;2023-01-19T02:39:43;16.67;;;10.18;;
36797;SDS011;22748;8.426;99.512;2023-01-19T02:42:20;13.20;;;9.77;;
36797;SDS011;22748;8.426;99.512;2023-01-19T02:44:57;10.95;;;9.90;;
36797;SDS011;22748;8.426;99.512;2023-01-19T02:47:37;17.73;;;10.93;;
36797;SDS011;22748;8.426;99.512;2023-01-19T02:53:05;12.00;;;9.90;;
36797;SDS011;22748;8.426;99.512;2023-01-19T02:56:00;13.38;;;11.45;;
36797;SDS011;22748;8.426;99.512;2023-01-19T02:58:38;13.75;;;11.52;;
36797;SDS011;22748;8.426;99.512;2023-01-19T03:01:14;17.60;;;12.50;;
36797;SDS011;22748;8.426;99.512;2023-01-19T03:03:57;12.52;;;9.63;;
36797;SDS011;22748;8.426;99.512;2023-01-19T03:06:39;12.07;;;10.18;;
36797;SDS011;22748;8.426;99.512;2023-01-19T03:09:16;10.98;;;9.88;;
36797;SDS011;22748;8.426;99.512;2023-01-19T03:12:03;9.75;;;8.80;;
36797;SDS011;22748;8.426;99.512;2023-01-19T03:14:40;10.55;;;8.77;;
36797;SDS011;22748;8.426;99.512;2023-01-19T03:17:15;9.60;;;8.20;;
36797;SDS011;22748;8.426;99.512;2023-01-19T03:19:47;10.40;;;8.70;;
36797;SDS011;22748;8.426;99.512;2023-01-19T03:22:21;9.38;;;8.30;;
36797;SDS011;22748;8.426;99.512;2023-01-19T03:24:58;10.73;;;8.07;;
36797;SDS011;22748;8.426;99.512;2023-01-19T03:27:37;8.80;;;7.85;;
36797;SDS011;22748;8.426;99.512;2023-01-19T03:30:12;7.53;;;6.57;;
36797;SDS011;22748;8.426;99.512;2023-01-19T03:32:49;8.00;;;7.20;;
36797;SDS011;22748;8.426;99.512;2023-01-19T03:35:24;8.32;;;6.75;;
36797;SDS011;22748;8.426;99.512;2023-01-19T03:37:56;7.50;;;6.80;;
36797;SDS011;22748;8.426;99.512;2023-01-19T03:40:30;8.57;;;6.50;;
36797;SDS011;22748;8.426;99.512;2023-01-19T03:43:07;7.75;;;6.95;;
36797;SDS011;22748;8.426;99.512;2023-01-19T03:45:39;8.88;;;6.70;;
36797;SDS011;22748;8.426;99.512;2023-01-19T03:48:11;12.90;;;7.30;;
36797;SDS011;22748;8.426;99.512;2023-01-19T03:50:43;10.35;;;8.00;;
36797;SDS011;22748;8.426;99.512;2023-01-19T03:53:15;12.07;;;8.15;;
36797;SDS011;22748;8.426;99.512;2023-01-19T03:55:45;10.07;;;8.07;;
36797;SDS011;22748;8.426;99.512;2023-01-19T03:58:24;10.40;;;8.20;;
36797;SDS011;22748;8.426;99.512;2023-01-19T04:00:56;10.25;;;7.90;;
36797;SDS011;22748;8.426;99.512;2023-01-19T04:03:29;11.50;;;8.10;;
36797;SDS011;22748;8.426;99.512;2023-01-19T04:06:00;9.85;;;7.97;;
36797;SDS011;22748;8.426;99.512;2023-01-19T04:08:32;9.40;;;7.35;;
36797;SDS011;22748;8.426;99.512;2023-01-19T04:11:02;10.63;;;7.90;;
36797;SDS011;22748;8.426;99.512;2023-01-19T04:13:35;10.27;;;7.25;;
36797;SDS011;22748;8.426;99.512;2023-01-19T04:16:06;9.50;;;7.80;;
36797;SDS011;22748;8.426;99.512;2023-01-19T04:18:39;9.85;;;7.40;;
36797;SDS011;22748;8.426;99.512;2023-01-19T04:21:10;10.25;;;6.85;;
36797;SDS011;22748;8.426;99.512;2023-01-19T04:23:41;9.35;;;6.97;;
36797;SDS011;22748;8.426;99.512;2023-01-19T04:26:11;8.27;;;6.90;;
36797;SDS011;22748;8.426;99.512;2023-01-19T04:28:43;8.95;;;7.18;;
36797;SDS011;22748;8.426;99.512;2023-01-19T04:31:15;9.50;;;7.32;;
36797;SDS011;22748;8.426;99.512;2023-01-19T04:33:44;10.38;;;8.05;;
36797;SDS011;22748;8.426;99.512;2023-01-19T04:36:14;8.30;;;7.45;;
36797;SDS011;22748;8.426;99.512;2023-01-19T04:38:44;10.15;;;7.90;;
36797;SDS011;22748;8.426;99.512;2023-01-19T04:41:17;8.77;;;7.90;;
36797;SDS011;22748;8.426;99.512;2023-01-19T04:43:51;12.88;;;8.20;;
36797;SDS011;22748;8.426;99.512;2023-01-19T04:46:21;8.95;;;7.72;;
36797;SDS011;22748;8.426;99.512;2023-01-19T04:48:52;11.63;;;7.27;;
36797;SDS011;22748;8.426;99.512;2023-01-19T04:51:25;8.05;;;7.20;;
36797;SDS011;22748;8.426;99.512;2023-01-19T04:53:57;10.88;;;7.28;;
36797;SDS011;22748;8.426;99.512;2023-01-19T04:58:59;9.65;;;7.32;;
36797;SDS011;22748;8.426;99.512;2023-01-19T05:01:28;10.05;;;7.07;;
36797;SDS011;22748;8.426;99.512;2023-01-19T05:04:03;9.43;;;6.78;;
36797;SDS011;22748;8.426;99.512;2023-01-19T05:06:35;9.05;;;6.60;;
36797;SDS011;22748;8.426;99.512;2023-01-19T05:09:07;11.43;;;6.90;;
36797;SDS011;22748;8.426;99.512;2023-01-19T05:11:41;9.73;;;6.53;;
36797;SDS011;22748;8.426;99.512;2023-01-19T05:14:17;7.90;;;7.13;;
36797;SDS011;22748;8.426;99.512;2023-01-19T05:16:50;10.05;;;6.60;;
36797;SDS011;22748;8.426;99.512;2023-01-19T05:19:21;7.93;;;6.18;;
36797;SDS011;22748;8.426;99.512;2023-01-19T05:21:52;6.90;;;6.20;;
36797;SDS011;22748;8.426;99.512;2023-01-19T05:24:23;9.48;;;7.32;;
36797;SDS011;22748;8.426;99.512;2023-01-19T05:26:54;13.80;;;8.00;;
36797;SDS011;22748;8.426;99.512;2023-01-19T05:29:26;63.10;;;28.10;;
36797;SDS011;22748;8.426;99.512;2023-01-19T05:31:57;63.58;;;35.75;;
36797;SDS011;22748;8.426;99.512;2023-01-19T05:34:28;46.03;;;25.23;;
36797;SDS011;22748;8.426;99.512;2023-01-19T05:37:01;25.70;;;14.32;;
36797;SDS011;22748;8.426;99.512;2023-01-19T05:39:31;12.75;;;9.40;;
36797;SDS011;22748;8.426;99.512;2023-01-19T05:42:01;7.63;;;6.13;;
36797;SDS011;22748;8.426;99.512;2023-01-19T05:44:33;7.38;;;6.07;;
36797;SDS011;22748;8.426;99.512;2023-01-19T05:47:03;9.27;;;6.03;;
36797;SDS011;22748;8.426;99.512;2023-01-19T05:49:35;6.93;;;6.10;;
36797;SDS011;22748;8.426;99.512;2023-01-19T05:52:05;6.25;;;5.68;;
36797;SDS011;22748;8.426;99.512;2023-01-19T05:54:34;8.15;;;5.78;;
36797;SDS011;22748;8.426;99.512;2023-01-19T05:57:06;8.15;;;5.57;;
36797;SDS011;22748;8.426;99.512;2023-01-19T05:59:42;7.78;;;6.13;;
36797;SDS011;22748;8.426;99.512;2023-01-19T06:02:13;7.22;;;5.85;;
36797;SDS011;22748;8.426;99.512;2023-01-19T06:04:43;7.30;;;5.63;;
36797;SDS011;22748;8.426;99.512;2023-01-19T06:07:14;9.32;;;6.15;;
36797;SDS011;22748;8.426;99.512;2023-01-19T06:09:45;7.15;;;5.28;;
36797;SDS011;22748;8.426;99.512;2023-01-19T06:12:17;6.05;;;5.47;;
36797;SDS011;22748;8.426;99.512;2023-01-19T06:14:49;5.97;;;5.03;;
36797;SDS011;22748;8.426;99.512;2023-01-19T06:17:21;7.60;;;6.07;;
36797;SDS011;22748;8.426;99.512;2023-01-19T06:19:52;8.93;;;5.85;;
36797;SDS011;22748;8.426;99.512;2023-01-19T06:22:21;8.90;;;5.82;;
36797;SDS011;22748;8.426;99.512;2023-01-19T06:24:52;7.38;;;6.15;;
36797;SDS011;22748;8.426;99.512;2023-01-19T06:27:22;7.90;;;5.80;;
36797;SDS011;22748;8.426;99.512;2023-01-19T06:29:53;7.35;;;5.85;;
36797;SDS011;22748;8.426;99.512;2023-01-19T06:32:23;11.82;;;6.72;;
36797;SDS011;22748;8.426;99.512;2023-01-19T06:34:53;8.77;;;5.82;;
36797;SDS011;22748;8.426;99.512;2023-01-19T06:37:25;6.65;;;6.00;;
36797;SDS011;22748;8.426;99.512;2023-01-19T06:39:57;7.55;;;5.32;;
36797;SDS011;22748;8.426;99.512;2023-01-19T06:42:28;8.20;;;5.75;;
36797;SDS011;22748;8.426;99.512;2023-01-19T06:45:02;6.70;;;5.80;;
36797;SDS011;22748;8.426;99.512;2023-01-19T06:47:33;7.13;;;5.50;;
36797;SDS011;22748;8.426;99.512;2023-01-19T06:50:03;5.47;;;4.97;;
36797;SDS011;22748;8.426;99.512;2023-01-19T06:52:33;7.35;;;5.50;;
36797;SDS011;22748;8.426;99.512;2023-01-19T06:55:10;7.00;;;5.53;;
36797;SDS011;22748;8.426;99.512;2023-01-19T06:57:42;7.80;;;5.43;;
36797;SDS011;22748;8.426;99.512;2023-01-19T07:00:16;10.18;;;6.63;;
36797;SDS011;22748;8.426;99.512;2023-01-19T07:02:47;6.80;;;5.72;;
36797;SDS011;22748;8.426;99.512;2023-01-19T07:05:17;6.93;;;5.20;;
36797;SDS011;22748;8.426;99.512;2023-01-19T07:07:52;6.43;;;5.55;;
36797;SDS011;22748;8.426;99.512;2023-01-19T07:10:24;7.60;;;5.32;;
36797;SDS011;22748;8.426;99.512;2023-01-19T07:12:56;6.00;;;5.50;;
36797;SDS011;22748;8.426;99.512;2023-01-19T07:15:29;7.65;;;5.65;;
36797;SDS011;22748;8.426;99.512;2023-01-19T07:18:01;6.53;;;5.53;;
36797;SDS011;22748;8.426;99.512;2023-01-19T07:20:34;6.32;;;5.15;;
36797;SDS011;22748;8.426;99.512;2023-01-19T07:23:07;8.48;;;5.85;;
36797;SDS011;22748;8.426;99.512;2023-01-19T07:25:39;8.68;;;5.72;;
36797;SDS011;22748;8.426;99.512;2023-01-19T07:28:15;8.65;;;6.10;;
36797;SDS011;22748;8.426;99.512;2023-01-19T07:30:48;8.57;;;5.25;;
36797;SDS011;22748;8.426;99.512;2023-01-19T07:33:21;6.35;;;4.90;;
36797;SDS011;22748;8.426;99.512;2023-01-19T07:35:51;5.75;;;5.18;;
36797;SDS011;22748;8.426;99.512;2023-01-19T07:38:23;9.63;;;5.15;;
36797;SDS011;22748;8.426;99.512;2023-01-19T07:40:58;8.80;;;5.32;;
36797;SDS011;22748;8.426;99.512;2023-01-19T07:43:30;6.45;;;5.30;;
36797;SDS011;22748;8.426;99.512;2023-01-19T07:46:03;9.30;;;6.22;;
36797;SDS011;22748;8.426;99.512;2023-01-19T07:48:35;10.45;;;6.60;;
36797;SDS011;22748;8.426;99.512;2023-01-19T07:51:06;8.10;;;5.18;;
36797;SDS011;22748;8.426;99.512;2023-01-19T07:53:37;8.65;;;5.35;;
36797;SDS011;22748;8.426;99.512;2023-01-19T07:56:10;13.52;;;11.63;;
36797;SDS011;22748;8.426;99.512;2023-01-19T07:58:41;8.68;;;7.68;;
36797;SDS011;22748;8.426;99.512;2023-01-19T08:03:46;7.03;;;5.05;;
36797;SDS011;22748;8.426;99.512;2023-01-19T08:06:18;5.97;;;5.10;;
36797;SDS011;22748;8.426;99.512;2023-01-19T08:08:49;5.90;;;4.65;;
36797;SDS011;22748;8.426;99.512;2023-01-19T08:11:20;6.63;;;5.20;;
36797;SDS011;22748;8.426;99.512;2023-01-19T08:13:54;6.18;;;5.57;;
36797;SDS011;22748;8.426;99.512;2023-01-19T08:16:27;6.60;;;4.88;;
36797;SDS011;22748;8.426;99.512;2023-01-19T08:18:58;9.02;;;5.22;;
36797;SDS011;22748;8.426;99.512;2023-01-19T08:24:00;7.28;;;5.28;;
36797;SDS011;22748;8.426;99.512;2023-01-19T08:26:32;8.23;;;5.50;;
36797;SDS011;22748;8.426;99.512;2023-01-19T08:29:03;7.22;;;5.25;;
36797;SDS011;22748;8.426;99.512;2023-01-19T08:31:39;8.18;;;5.25;;
36797;SDS011;22748;8.426;99.512;2023-01-19T08:34:11;7.07;;;5.63;;
36797;SDS011;22748;8.426;99.512;2023-01-19T08:36:40;8.32;;;6.53;;
36797;SDS011;22748;8.426;99.512;2023-01-19T08:39:10;5.70;;;4.97;;
36797;SDS011;22748;8.426;99.512;2023-01-19T08:41:43;8.85;;;4.93;;
36797;SDS011;22748;8.426;99.512;2023-01-19T08:44:16;10.18;;;5.65;;
36797;SDS011;22748;8.426;99.512;2023-01-19T08:46:48;8.32;;;5.82;;
36797;SDS011;22748;8.426;99.512;2023-01-19T08:49:19;6.70;;;5.20;;
36797;SDS011;22748;8.426;99.512;2023-01-19T08:51:50;6.90;;;5.57;;
36797;SDS011;22748;8.426;99.512;2023-01-19T08:54:21;9.27;;;6.30;;
36797;SDS011;22748;8.426;99.512;2023-01-19T08:56:55;10.50;;;6.32;;
36797;SDS011;22748;8.426;99.512;2023-01-19T08:59:25;7.82;;;6.05;;
36797;SDS011;22748;8.426;99.512;2023-01-19T09:01:58;8.73;;;5.57;;
36797;SDS011;22748;8.426;99.512;2023-01-19T09:04:29;8.93;;;5.82;;
36797;SDS011;22748;8.426;99.512;2023-01-19T09:07:00;6.80;;;6.03;;
36797;SDS011;22748;8.426;99.512;2023-01-19T09:09:31;7.32;;;5.05;;
36797;SDS011;22748;8.426;99.512;2023-01-19T09:12:03;6.75;;;5.03;;
36797;SDS011;22748;8.426;99.512;2023-01-19T09:14:33;5.32;;;4.82;;
36797;SDS011;22748;8.426;99.512;2023-01-19T09:17:05;6.35;;;5.28;;
36797;SDS011;22748;8.426;99.512;2023-01-19T09:19:42;7.22;;;5.20;;
36797;SDS011;22748;8.426;99.512;2023-01-19T09:22:12;8.20;;;5.05;;
36797;SDS011;22748;8.426;99.512;2023-01-19T09:27:13;6.35;;;5.38;;
36797;SDS011;22748;8.426;99.512;2023-01-19T09:29:44;7.10;;;5.30;;
36797;SDS011;22748;8.426;99.512;2023-01-19T09:32:23;6.22;;;5.63;;
36797;SDS011;22748;8.426;99.512;2023-01-19T09:34:53;6.00;;;4.95;;
36797;SDS011;22748;8.426;99.512;2023-01-19T09:37:27;7.72;;;5.30;;
36797;SDS011;22748;8.426;99.512;2023-01-19T09:39:57;5.53;;;5.03;;
36797;SDS011;22748;8.426;99.512;2023-01-19T09:42:30;8.25;;;5.65;;
36797;SDS011;22748;8.426;99.512;2023-01-19T09:45:11;7.63;;;5.22;;
36797;SDS011;22748;8.426;99.512;2023-01-19T09:47:48;7.72;;;5.32;;
36797;SDS011;22748;8.426;99.512;2023-01-19T09:50:23;7.32;;;5.55;;
36797;SDS011;22748;8.426;99.512;2023-01-19T09:52:57;6.28;;;5.63;;
36797;SDS011;22748;8.426;99.512;2023-01-19T09:55:36;6.93;;;5.57;;
36797;SDS011;22748;8.426;99.512;2023-01-19T09:58:09;6.55;;;5.55;;
36797;SDS011;22748;8.426;99.512;2023-01-19T10:00:46;8.13;;;5.95;;
36797;SDS011;22748;8.426;99.512;2023-01-19T10:03:30;8.23;;;5.68;;
36797;SDS011;22748;8.426;99.512;2023-01-19T10:06:05;6.85;;;5.20;;
36797;SDS011;22748;8.426;99.512;2023-01-19T10:08:45;11.38;;;6.60;;
36797;SDS011;22748;8.426;99.512;2023-01-19T10:11:25;9.55;;;6.90;;
36797;SDS011;22748;8.426;99.512;2023-01-19T10:14:08;7.07;;;6.38;;
36797;SDS011;22748;8.426;99.512;2023-01-19T10:16:47;7.50;;;6.30;;
36797;SDS011;22748;8.426;99.512;2023-01-19T10:19:33;7.28;;;6.13;;
36797;SDS011;22748;8.426;99.512;2023-01-19T10:22:13;8.73;;;6.10;;
36797;SDS011;22748;8.426;99.512;2023-01-19T10:24:50;7.80;;;5.97;;
36797;SDS011;22748;8.426;99.512;2023-01-19T10:27:26;7.40;;;6.60;;
36797;SDS011;22748;8.426;99.512;2023-01-19T10:29:59;9.10;;;5.93;;
36797;SDS011;22748;8.426;99.512;2023-01-19T10:32:31;10.23;;;5.85;;
36797;SDS011;22748;8.426;99.512;2023-01-19T10:35:11;8.68;;;6.35;;
36797;SDS011;22748;8.426;99.512;2023-01-19T10:37:50;9.13;;;6.53;;
36797;SDS011;22748;8.426;99.512;2023-01-19T10:40:26;8.38;;;6.68;;
36797;SDS011;22748;8.426;99.512;2023-01-19T10:43:01;11.25;;;6.78;;
36797;SDS011;22748;8.426;99.512;2023-01-19T10:46:15;10.73;;;6.90;;
36797;SDS011;22748;8.426;99.512;2023-01-19T10:48:50;8.65;;;6.55;;
36797;SDS011;22748;8.426;99.512;2023-01-19T10:51:24;9.02;;;7.40;;
36797;SDS011;22748;8.426;99.512;2023-01-19T10:53:55;7.65;;;6.53;;
36797;SDS011;22748;8.426;99.512;2023-01-19T10:56:31;10.13;;;8.40;;
36797;SDS011;22748;8.426;99.512;2023-01-19T10:59:04;11.45;;;7.85;;
36797;SDS011;22748;8.426;99.512;2023-01-19T11:01:37;10.52;;;7.50;;
36797;SDS011;22748;8.426;99.512;2023-01-19T11:07:11;10.82;;;8.50;;
36797;SDS011;22748;8.426;99.512;2023-01-19T11:09:43;14.80;;;11.85;;
36797;SDS011;22748;8.426;99.512;2023-01-19T11:12:21;17.38;;;12.35;;
36797;SDS011;22748;8.426;99.512;2023-01-19T11:14:51;16.08;;;11.80;;
36797;SDS011;22748;8.426;99.512;2023-01-19T11:17:24;18.75;;;12.93;;
36797;SDS011;22748;8.426;99.512;2023-01-19T11:19:56;16.10;;;11.35;;
36797;SDS011;22748;8.426;99.512;2023-01-19T11:22:30;14.32;;;10.40;;
36797;SDS011;22748;8.426;99.512;2023-01-19T11:25:03;14.13;;;10.73;;
36797;SDS011;22748;8.426;99.512;2023-01-19T11:27:35;10.77;;;9.60;;
36797;SDS011;22748;8.426;99.512;2023-01-19T11:30:07;15.90;;;9.07;;
36797;SDS011;22748;8.426;99.512;2023-01-19T11:32:47;12.82;;;8.88;;
36797;SDS011;22748;8.426;99.512;2023-01-19T11:38:10;10.35;;;8.77;;
36797;SDS011;22748;8.426;99.512;2023-01-19T11:40:49;10.38;;;7.50;;
36797;SDS011;22748;8.426;99.512;2023-01-19T11:43:26;10.45;;;7.50;;
36797;SDS011;22748;8.426;99.512;2023-01-19T11:45:59;11.20;;;6.82;;
36797;SDS011;22748;8.426;99.512;2023-01-19T11:48:32;10.68;;;7.88;;
36797;SDS011;22748;8.426;99.512;2023-01-19T11:51:11;8.82;;;7.50;;
36797;SDS011;22748;8.426;99.512;2023-01-19T11:53:47;9.10;;;7.93;;
36797;SDS011;22748;8.426;99.512;2023-01-19T11:56:21;8.93;;;8.02;;
36797;SDS011;22748;8.426;99.512;2023-01-19T11:58:55;9.32;;;8.30;;
36797;SDS011;22748;8.426;99.512;2023-01-19T12:01:26;9.45;;;7.97;;
36797;SDS011;22748;8.426;99.512;2023-01-19T12:04:03;9.75;;;8.60;;
36797;SDS011;22748;8.426;99.512;2023-01-19T12:06:40;12.23;;;8.57;;
36797;SDS011;22748;8.426;99.512;2023-01-19T12:09:19;9.95;;;8.45;;
36797;SDS011;22748;8.426;99.512;2023-01-19T12:11:53;12.38;;;8.00;;
36797;SDS011;22748;8.426;99.512;2023-01-19T12:14:37;14.23;;;9.57;;
36797;SDS011;22748;8.426;99.512;2023-01-19T12:17:11;12.70;;;9.95;;
36797;SDS011;22748;8.426;99.512;2023-01-19T12:19:49;13.27;;;9.63;;
36797;SDS011;22748;8.426;99.512;2023-01-19T12:22:23;18.35;;;8.95;;
36797;SDS011;22748;8.426;99.512;2023-01-19T12:25:00;11.73;;;8.52;;
36797;SDS011;22748;8.426;99.512;2023-01-19T12:30:10;10.55;;;8.52;;
36797;SDS011;22748;8.426;99.512;2023-01-19T12:32:47;12.38;;;8.82;;
36797;SDS011;22748;8.426;99.512;2023-01-19T12:38:28;10.90;;;8.70;;
36797;SDS011;22748;8.426;99.512;2023-01-19T12:41:20;9.32;;;8.25;;
36797;SDS011;22748;8.426;99.512;2023-01-19T12:46:53;14.13;;;9.57;;
36797;SDS011;22748;8.426;99.512;2023-01-19T12:49:29;14.48;;;9.55;;
36797;SDS011;22748;8.426;99.512;2023-01-19T12:52:16;17.17;;;10.95;;
36797;SDS011;22748;8.426;99.512;2023-01-19T12:54:53;15.63;;;11.95;;
36797;SDS011;22748;8.426;99.512;2023-01-19T12:57:34;13.30;;;11.90;;
36797;SDS011;22748;8.426;99.512;2023-01-19T13:00:26;16.27;;;11.13;;
36797;SDS011;22748;8.426;99.512;2023-01-19T13:06:02;13.82;;;11.90;;
36797;SDS011;22748;8.426;99.512;2023-01-19T13:11:29;51.85;;;36.40;;
36797;SDS011;22748;8.426;99.512;2023-01-19T13:20:18;43.33;;;34.55;;
36797;SDS011;22748;8.426;99.512;2023-01-19T13:25:47;27.67;;;21.73;;
36797;SDS011;22748;8.426;99.512;2023-01-19T13:28:22;31.33;;;21.70;;
36797;SDS011;22748;8.426;99.512;2023-01-19T13:30:57;20.95;;;15.77;;
36797;SDS011;22748;8.426;99.512;2023-01-19T13:33:34;24.33;;;16.63;;
36797;SDS011;22748;8.426;99.512;2023-01-19T13:36:20;18.15;;;15.27;;
36797;SDS011;22748;8.426;99.512;2023-01-19T13:38:56;20.45;;;15.82;;
36797;SDS011;22748;8.426;99.512;2023-01-19T13:41:29;20.40;;;15.45;;
36797;SDS011;22748;8.426;99.512;2023-01-19T13:44:06;18.15;;;14.80;;
36797;SDS011;22748;8.426;99.512;2023-01-19T13:46:41;17.98;;;15.05;;
36797;SDS011;22748;8.426;99.512;2023-01-19T13:49:14;21.27;;;15.60;;
36797;SDS011;22748;8.426;99.512;2023-01-19T13:54:35;24.00;;;15.65;;
36797;SDS011;22748;8.426;99.512;2023-01-19T13:57:19;24.02;;;16.08;;
36797;SDS011;22748;8.426;99.512;2023-01-19T14:02:54;18.35;;;14.82;;
36797;SDS011;22748;8.426;99.512;2023-01-19T14:05:27;18.05;;;14.82;;
36797;SDS011;22748;8.426;99.512;2023-01-19T14:08:09;19.75;;;14.70;;
36797;SDS011;22748;8.426;99.512;2023-01-19T14:10:58;17.08;;;14.65;;
36797;SDS011;22748;8.426;99.512;2023-01-19T14:13:36;18.08;;;14.13;;
36797;SDS011;22748;8.426;99.512;2023-01-19T14:16:12;17.20;;;14.00;;
36797;SDS011;22748;8.426;99.512;2023-01-19T14:18:44;17.40;;;14.35;;
36797;SDS011;22748;8.426;99.512;2023-01-19T14:21:14;17.73;;;13.48;;
36797;SDS011;22748;8.426;99.512;2023-01-19T14:23:51;19.17;;;13.90;;
36797;SDS011;22748;8.426;99.512;2023-01-19T14:29:23;23.83;;;15.38;;
36797;SDS011;22748;8.426;99.512;2023-01-19T14:34:47;25.00;;;20.20;;
36797;SDS011;22748;8.426;99.512;2023-01-19T14:37:22;23.42;;;20.92;;
36797;SDS011;22748;8.426;99.512;2023-01-19T14:40:00;26.55;;;22.73;;
36797;SDS011;22748;8.426;99.512;2023-01-19T14:42:34;27.55;;;22.90;;
36797;SDS011;22748;8.426;99.512;2023-01-19T14:45:06;26.92;;;20.13;;
36797;SDS011;22748;8.426;99.512;2023-01-19T14:47:44;28.20;;;21.52;;
36797;SDS011;22748;8.426;99.512;2023-01-19T14:50:22;28.67;;;22.63;;
36797;SDS011;22748;8.426;99.512;2023-01-19T14:52:56;29.23;;;23.17;;
36797;SDS011;22748;8.426;99.512;2023-01-19T14:55:33;23.92;;;19.50;;
36797;SDS011;22748;8.426;99.512;2023-01-19T14:58:10;23.83;;;18.42;;
36797;SDS011;22748;8.426;99.512;2023-01-19T15:00:41;24.27;;;18.60;;
36797;SDS011;22748;8.426;99.512;2023-01-19T15:03:13;20.90;;;16.02;;
36797;SDS011;22748;8.426;99.512;2023-01-19T15:05:46;17.13;;;14.55;;
36797;SDS011;22748;8.426;99.512;2023-01-19T15:08:19;19.05;;;14.38;;
36797;SDS011;22748;8.426;99.512;2023-01-19T15:10:54;18.13;;;14.63;;
36797;SDS011;22748;8.426;99.512;2023-01-19T15:13:28;15.77;;;13.13;;
36797;SDS011;22748;8.426;99.512;2023-01-19T15:15:59;17.52;;;12.55;;
36797;SDS011;22748;8.426;99.512;2023-01-19T15:18:31;21.70;;;14.50;;
36797;SDS011;22748;8.426;99.512;2023-01-19T15:21:02;20.77;;;15.52;;
36797;SDS011;22748;8.426;99.512;2023-01-19T15:23:34;18.23;;;13.60;;
36797;SDS011;22748;8.426;99.512;2023-01-19T15:26:06;15.63;;;13.10;;
36797;SDS011;22748;8.426;99.512;2023-01-19T15:28:42;16.50;;;12.00;;
36797;SDS011;22748;8.426;99.512;2023-01-19T15:31:16;14.07;;;11.52;;
36797;SDS011;22748;8.426;99.512;2023-01-19T15:33:47;14.63;;;11.45;;
36797;SDS011;22748;8.426;99.512;2023-01-19T15:36:20;13.20;;;11.50;;
36797;SDS011;22748;8.426;99.512;2023-01-19T15:38:51;13.13;;;11.30;;
36797;SDS011;22748;8.426;99.512;2023-01-19T15:41:25;12.65;;;10.98;;
36797;SDS011;22748;8.426;99.512;2023-01-19T15:43:58;14.88;;;11.05;;
36797;SDS011;22748;8.426;99.512;2023-01-19T15:46:31;16.38;;;11.27;;
36797;SDS011;22748;8.426;99.512;2023-01-19T15:49:03;13.10;;;11.50;;
36797;SDS011;22748;8.426;99.512;2023-01-19T15:51:33;13.80;;;11.68;;
36797;SDS011;22748;8.426;99.512;2023-01-19T15:54:04;17.52;;;11.50;;
36797;SDS011;22748;8.426;99.512;2023-01-19T15:56:41;14.95;;;11.88;;
36797;SDS011;22748;8.426;99.512;2023-01-19T15:59:12;14.60;;;11.85;;
36797;SDS011;22748;8.426;99.512;2023-01-19T16:01:42;14.82;;;12.35;;
36797;SDS011;22748;8.426;99.512;2023-01-19T16:04:14;15.27;;;12.15;;
36797;SDS011;22748;8.426;99.512;2023-01-19T16:06:45;15.00;;;12.18;;
36797;SDS011;22748;8.426;99.512;2023-01-19T16:09:17;13.82;;;11.52;;
36797;SDS011;22748;8.426;99.512;2023-01-19T16:11:53;17.85;;;11.55;;
36797;SDS011;22748;8.426;99.512;2023-01-19T16:14:25;16.90;;;12.05;;
36797;SDS011;22748;8.426;99.512;2023-01-19T16:16:57;14.23;;;11.82;;